sensor_id;sensor_type;location;lat;lon;timestamp;P1;durP1;ratioP1;P2;durP2;ratioP2
29570;SDS011;16814;52.118;11.436;2022-11-02T00:00:42;21.07;;;2.50;;
29570;SDS011;16814;52.118;11.436;2022-11-02T00:03:11;10.43;;;1.83;;
29570;SDS011;16814;52.118;11.436;2022-11-02T00:05:38;11.80;;;1.83;;
29570;SDS011;16814;52.118;11.436;2022-11-02T00:08:03;10.13;;;2.13;;
29570;SDS011;16814;52.118;11.436;2022-11-02T00:10:31;13.57;;;2.65;;
29570;SDS011;16814;52.118;11.436;2022-11-02T00:12:58;8.80;;;2.38;;
29570;SDS011;16814;52.118;11.436;2022-11-02T00:15:27;9.48;;;2.15;;
29570;SDS011;16814;52.118;11.436;2022-11-02T00:18:00;6.53;;;2.25;;
29570;SDS011;16814;52.118;11.436;2022-11-02T00:20:31;11.50;;;1.80;;
29570;SDS011;16814;52.118;11.436;2022-11-02T00:23:00;6.20;;;1.98;;
29570;SDS011;16814;52.118;11.436;2022-11-02T00:25:28;9.02;;;2.05;;
29570;SDS011;16814;52.118;11.436;2022-11-02T00:27:55;10.17;;;2.13;;
29570;SDS011;16814;52.118;11.436;2022-11-02T00:30:22;10.27;;;1.93;;
29570;SDS011;16814;52.118;11.436;2022-11-02T00:32:48;6.10;;;1.83;;
29570;SDS011;16814;52.118;11.436;2022-11-02T00:35:16;8.48;;;1.90;;
29570;SDS011;16814;52.118;11.436;2022-11-02T00:37:43;12.70;;;1.80;;
29570;SDS011;16814;52.118;11.436;2022-11-02T00:40:11;9.73;;;1.90;;
29570;SDS011;16814;52.118;11.436;2022-11-02T00:42:38;9.90;;;1.90;;
29570;SDS011;16814;52.118;11.436;2022-11-02T00:45:05;8.05;;;1.90;;
29570;SDS011;16814;52.118;11.436;2022-11-02T00:47:33;6.72;;;1.95;;
29570;SDS011;16814;52.118;11.436;2022-11-02T00:49:59;11.77;;;2.22;;
29570;SDS011;16814;52.118;11.436;2022-11-02T00:52:27;9.27;;;1.85;;
29570;SDS011;16814;52.118;11.436;2022-11-02T00:54:55;15.05;;;1.80;;
29570;SDS011;16814;52.118;11.436;2022-11-02T00:57:21;8.07;;;1.87;;
29570;SDS011;16814;52.118;11.436;2022-11-02T00:59:47;9.52;;;2.40;;
29570;SDS011;16814;52.118;11.436;2022-11-02T01:02:22;16.02;;;1.90;;
29570;SDS011;16814;52.118;11.436;2022-11-02T01:04:47;11.07;;;1.73;;
29570;SDS011;16814;52.118;11.436;2022-11-02T01:07:13;11.10;;;1.83;;
29570;SDS011;16814;52.118;11.436;2022-11-02T01:09:39;9.13;;;1.70;;
29570;SDS011;16814;52.118;11.436;2022-11-02T01:12:04;7.30;;;1.57;;
29570;SDS011;16814;52.118;11.436;2022-11-02T01:14:32;9.20;;;2.28;;
29570;SDS011;16814;52.118;11.436;2022-11-02T01:16:59;12.27;;;2.00;;
29570;SDS011;16814;52.118;11.436;2022-11-02T01:19:27;9.52;;;2.08;;
29570;SDS011;16814;52.118;11.436;2022-11-02T01:21:53;12.05;;;2.00;;
29570;SDS011;16814;52.118;11.436;2022-11-02T01:24:20;9.88;;;2.25;;
29570;SDS011;16814;52.118;11.436;2022-11-02T01:26:49;10.95;;;2.28;;
29570;SDS011;16814;52.118;11.436;2022-11-02T01:29:20;11.57;;;2.08;;
29570;SDS011;16814;52.118;11.436;2022-11-02T01:31:47;10.35;;;2.20;;
29570;SDS011;16814;52.118;11.436;2022-11-02T01:34:15;10.48;;;2.08;;
29570;SDS011;16814;52.118;11.436;2022-11-02T01:36:43;9.97;;;2.20;;
29570;SDS011;16814;52.118;11.436;2022-11-02T01:39:12;12.77;;;2.30;;
29570;SDS011;16814;52.118;11.436;2022-11-02T01:41:41;12.87;;;2.13;;
29570;SDS011;16814;52.118;11.436;2022-11-02T01:47:04;13.23;;;1.80;;
29570;SDS011;16814;52.118;11.436;2022-11-02T01:49:56;16.42;;;2.47;;
29570;SDS011;16814;52.118;11.436;2022-11-02T01:52:39;9.27;;;1.60;;
29570;SDS011;16814;52.118;11.436;2022-11-02T01:55:08;14.80;;;2.55;;
29570;SDS011;16814;52.118;11.436;2022-11-02T01:57:42;11.65;;;2.20;;
29570;SDS011;16814;52.118;11.436;2022-11-02T02:00:13;15.32;;;2.30;;
29570;SDS011;16814;52.118;11.436;2022-11-02T02:02:49;13.93;;;1.80;;
29570;SDS011;16814;52.118;11.436;2022-11-02T02:05:21;11.63;;;1.88;;
29570;SDS011;16814;52.118;11.436;2022-11-02T02:07:53;10.67;;;1.90;;
29570;SDS011;16814;52.118;11.436;2022-11-02T02:10:21;14.52;;;2.28;;
29570;SDS011;16814;52.118;11.436;2022-11-02T02:12:48;14.38;;;2.20;;
29570;SDS011;16814;52.118;11.436;2022-11-02T02:15:14;9.18;;;1.83;;
29570;SDS011;16814;52.118;11.436;2022-11-02T02:18:00;16.53;;;2.30;;
29570;SDS011;16814;52.118;11.436;2022-11-02T02:21:11;9.93;;;1.90;;
29570;SDS011;16814;52.118;11.436;2022-11-02T02:23:54;9.18;;;1.83;;
29570;SDS011;16814;52.118;11.436;2022-11-02T02:30:18;15.73;;;2.00;;
29570;SDS011;16814;52.118;11.436;2022-11-02T02:32:47;13.50;;;2.40;;
29570;SDS011;16814;52.118;11.436;2022-11-02T02:35:45;12.50;;;2.13;;
29570;SDS011;16814;52.118;11.436;2022-11-02T02:38:19;14.55;;;2.38;;
29570;SDS011;16814;52.118;11.436;2022-11-02T02:41:10;14.63;;;2.35;;
29570;SDS011;16814;52.118;11.436;2022-11-02T02:43:58;13.15;;;2.58;;
29570;SDS011;16814;52.118;11.436;2022-11-02T02:49:17;18.08;;;2.72;;
29570;SDS011;16814;52.118;11.436;2022-11-02T02:51:49;16.10;;;2.83;;
29570;SDS011;16814;52.118;11.436;2022-11-02T02:54:23;13.63;;;2.50;;
29570;SDS011;16814;52.118;11.436;2022-11-02T02:56:55;13.50;;;2.60;;
29570;SDS011;16814;52.118;11.436;2022-11-02T02:59:28;15.27;;;2.70;;
29570;SDS011;16814;52.118;11.436;2022-11-02T03:02:03;13.55;;;2.20;;
29570;SDS011;16814;52.118;11.436;2022-11-02T03:04:33;14.38;;;2.58;;
29570;SDS011;16814;52.118;11.436;2022-11-02T03:07:01;18.20;;;2.80;;
29570;SDS011;16814;52.118;11.436;2022-11-02T03:09:33;15.73;;;2.50;;
29570;SDS011;16814;52.118;11.436;2022-11-02T03:12:15;13.98;;;2.78;;
29570;SDS011;16814;52.118;11.436;2022-11-02T03:15:09;17.33;;;2.58;;
29570;SDS011;16814;52.118;11.436;2022-11-02T03:23:30;19.27;;;2.65;;
29570;SDS011;16814;52.118;11.436;2022-11-02T03:26:10;15.77;;;2.45;;
29570;SDS011;16814;52.118;11.436;2022-11-02T03:31:41;10.30;;;2.20;;
29570;SDS011;16814;52.118;11.436;2022-11-02T03:36:43;15.45;;;2.35;;
29570;SDS011;16814;52.118;11.436;2022-11-02T03:39:29;17.38;;;2.80;;
29570;SDS011;16814;52.118;11.436;2022-11-02T03:42:02;17.33;;;2.65;;
29570;SDS011;16814;52.118;11.436;2022-11-02T03:44:29;10.65;;;2.13;;
29570;SDS011;16814;52.118;11.436;2022-11-02T03:47:01;14.45;;;2.80;;
29570;SDS011;16814;52.118;11.436;2022-11-02T03:49:29;12.95;;;2.20;;
29570;SDS011;16814;52.118;11.436;2022-11-02T03:51:59;21.53;;;2.43;;
29570;SDS011;16814;52.118;11.436;2022-11-02T03:57:20;17.27;;;2.60;;
29570;SDS011;16814;52.118;11.436;2022-11-02T03:59:51;17.42;;;2.28;;
29570;SDS011;16814;52.118;11.436;2022-11-02T04:02:16;16.25;;;2.60;;
29570;SDS011;16814;52.118;11.436;2022-11-02T04:04:50;14.63;;;2.95;;
29570;SDS011;16814;52.118;11.436;2022-11-02T04:07:18;13.23;;;2.30;;
29570;SDS011;16814;52.118;11.436;2022-11-02T04:10:24;17.00;;;2.97;;
29570;SDS011;16814;52.118;11.436;2022-11-02T04:12:53;15.32;;;2.20;;
29570;SDS011;16814;52.118;11.436;2022-11-02T04:15:40;15.93;;;2.50;;
29570;SDS011;16814;52.118;11.436;2022-11-02T04:18:06;18.55;;;2.83;;
29570;SDS011;16814;52.118;11.436;2022-11-02T04:20:52;14.65;;;2.92;;
29570;SDS011;16814;52.118;11.436;2022-11-02T04:23:19;11.17;;;2.23;;
29570;SDS011;16814;52.118;11.436;2022-11-02T04:26:07;15.68;;;3.03;;
29570;SDS011;16814;52.118;11.436;2022-11-02T04:28:34;15.18;;;2.92;;
29570;SDS011;16814;52.118;11.436;2022-11-02T04:31:05;12.90;;;2.60;;
29570;SDS011;16814;52.118;11.436;2022-11-02T04:33:30;13.48;;;2.40;;
29570;SDS011;16814;52.118;11.436;2022-11-02T04:36:04;14.55;;;2.20;;
29570;SDS011;16814;52.118;11.436;2022-11-02T04:38:32;12.02;;;2.30;;
29570;SDS011;16814;52.118;11.436;2022-11-02T04:41:06;13.05;;;2.17;;
29570;SDS011;16814;52.118;11.436;2022-11-02T04:44:03;12.30;;;2.42;;
29570;SDS011;16814;52.118;11.436;2022-11-02T04:46:33;17.33;;;2.63;;
29570;SDS011;16814;52.118;11.436;2022-11-02T04:49:01;15.35;;;2.63;;
29570;SDS011;16814;52.118;11.436;2022-11-02T04:51:28;10.82;;;2.72;;
29570;SDS011;16814;52.118;11.436;2022-11-02T04:53:55;13.50;;;2.40;;
29570;SDS011;16814;52.118;11.436;2022-11-02T04:56:22;17.23;;;2.60;;
29570;SDS011;16814;52.118;11.436;2022-11-02T04:58:55;19.73;;;2.70;;
29570;SDS011;16814;52.118;11.436;2022-11-02T05:01:25;15.60;;;2.65;;
29570;SDS011;16814;52.118;11.436;2022-11-02T05:03:55;13.80;;;2.22;;
29570;SDS011;16814;52.118;11.436;2022-11-02T05:06:21;18.02;;;2.63;;
29570;SDS011;16814;52.118;11.436;2022-11-02T05:08:49;17.30;;;2.60;;
29570;SDS011;16814;52.118;11.436;2022-11-02T05:11:17;16.58;;;2.90;;
29570;SDS011;16814;52.118;11.436;2022-11-02T05:13:42;11.90;;;2.58;;
29570;SDS011;16814;52.118;11.436;2022-11-02T05:16:13;14.23;;;2.60;;
29570;SDS011;16814;52.118;11.436;2022-11-02T05:18:40;12.15;;;2.45;;
29570;SDS011;16814;52.118;11.436;2022-11-02T05:21:08;13.73;;;2.55;;
29570;SDS011;16814;52.118;11.436;2022-11-02T05:23:36;17.92;;;2.58;;
29570;SDS011;16814;52.118;11.436;2022-11-02T05:26:03;9.18;;;2.13;;
29570;SDS011;16814;52.118;11.436;2022-11-02T05:28:31;17.17;;;2.33;;
29570;SDS011;16814;52.118;11.436;2022-11-02T05:30:58;14.82;;;2.53;;
29570;SDS011;16814;52.118;11.436;2022-11-02T05:33:28;13.95;;;2.33;;
29570;SDS011;16814;52.118;11.436;2022-11-02T05:35:55;13.45;;;2.38;;
29570;SDS011;16814;52.118;11.436;2022-11-02T05:38:24;13.80;;;3.25;;
29570;SDS011;16814;52.118;11.436;2022-11-02T05:40:52;17.02;;;3.20;;
29570;SDS011;16814;52.118;11.436;2022-11-02T05:43:19;16.70;;;3.63;;
29570;SDS011;16814;52.118;11.436;2022-11-02T05:45:49;15.27;;;2.70;;
29570;SDS011;16814;52.118;11.436;2022-11-02T05:48:18;14.52;;;2.60;;
29570;SDS011;16814;52.118;11.436;2022-11-02T05:50:43;13.32;;;2.33;;
29570;SDS011;16814;52.118;11.436;2022-11-02T05:53:14;11.50;;;2.30;;
29570;SDS011;16814;52.118;11.436;2022-11-02T05:55:41;13.70;;;2.40;;
29570;SDS011;16814;52.118;11.436;2022-11-02T05:58:09;13.90;;;2.45;;
29570;SDS011;16814;52.118;11.436;2022-11-02T06:00:41;19.48;;;2.65;;
29570;SDS011;16814;52.118;11.436;2022-11-02T06:03:08;17.27;;;2.47;;
29570;SDS011;16814;52.118;11.436;2022-11-02T06:05:34;18.15;;;2.80;;
29570;SDS011;16814;52.118;11.436;2022-11-02T06:08:01;21.17;;;2.90;;
29570;SDS011;16814;52.118;11.436;2022-11-02T06:10:30;13.18;;;2.20;;
29570;SDS011;16814;52.118;11.436;2022-11-02T06:12:57;16.88;;;2.75;;
29570;SDS011;16814;52.118;11.436;2022-11-02T06:15:25;18.13;;;3.00;;
29570;SDS011;16814;52.118;11.436;2022-11-02T06:17:53;13.97;;;2.77;;
29570;SDS011;16814;52.118;11.436;2022-11-02T06:20:19;18.05;;;2.65;;
29570;SDS011;16814;52.118;11.436;2022-11-02T06:22:46;12.68;;;2.72;;
29570;SDS011;16814;52.118;11.436;2022-11-02T06:25:15;13.40;;;2.50;;
29570;SDS011;16814;52.118;11.436;2022-11-02T06:27:48;14.90;;;2.47;;
29570;SDS011;16814;52.118;11.436;2022-11-02T06:30:16;13.77;;;2.33;;
29570;SDS011;16814;52.118;11.436;2022-11-02T06:32:49;16.17;;;2.35;;
29570;SDS011;16814;52.118;11.436;2022-11-02T06:35:31;16.75;;;2.83;;
29570;SDS011;16814;52.118;11.436;2022-11-02T06:37:58;16.70;;;2.97;;
29570;SDS011;16814;52.118;11.436;2022-11-02T06:40:24;19.47;;;2.60;;
29570;SDS011;16814;52.118;11.436;2022-11-02T06:42:56;17.10;;;2.55;;
29570;SDS011;16814;52.118;11.436;2022-11-02T06:45:25;13.13;;;2.20;;
29570;SDS011;16814;52.118;11.436;2022-11-02T06:47:51;13.95;;;2.50;;
29570;SDS011;16814;52.118;11.436;2022-11-02T06:50:17;16.43;;;2.93;;
29570;SDS011;16814;52.118;11.436;2022-11-02T06:52:45;18.48;;;2.38;;
29570;SDS011;16814;52.118;11.436;2022-11-02T06:55:13;11.05;;;2.25;;
29570;SDS011;16814;52.118;11.436;2022-11-02T06:57:42;13.20;;;2.53;;
29570;SDS011;16814;52.118;11.436;2022-11-02T07:00:12;15.02;;;2.53;;
29570;SDS011;16814;52.118;11.436;2022-11-02T07:02:43;22.75;;;3.40;;
29570;SDS011;16814;52.118;11.436;2022-11-02T07:05:12;14.45;;;2.63;;
29570;SDS011;16814;52.118;11.436;2022-11-02T07:07:40;11.70;;;2.35;;
29570;SDS011;16814;52.118;11.436;2022-11-02T07:10:06;13.95;;;2.63;;
29570;SDS011;16814;52.118;11.436;2022-11-02T07:12:34;16.38;;;2.53;;
29570;SDS011;16814;52.118;11.436;2022-11-02T07:15:01;13.63;;;2.25;;
29570;SDS011;16814;52.118;11.436;2022-11-02T07:17:29;15.32;;;2.78;;
29570;SDS011;16814;52.118;11.436;2022-11-02T07:19:57;11.45;;;2.45;;
29570;SDS011;16814;52.118;11.436;2022-11-02T07:22:24;11.70;;;2.27;;
29570;SDS011;16814;52.118;11.436;2022-11-02T07:24:51;13.15;;;2.30;;
29570;SDS011;16814;52.118;11.436;2022-11-02T07:27:18;16.45;;;2.42;;
29570;SDS011;16814;52.118;11.436;2022-11-02T07:29:46;14.05;;;2.25;;
29570;SDS011;16814;52.118;11.436;2022-11-02T07:32:12;15.52;;;2.50;;
29570;SDS011;16814;52.118;11.436;2022-11-02T07:34:39;15.30;;;2.80;;
29570;SDS011;16814;52.118;11.436;2022-11-02T07:37:05;15.65;;;2.65;;
29570;SDS011;16814;52.118;11.436;2022-11-02T07:39:32;20.05;;;3.05;;
29570;SDS011;16814;52.118;11.436;2022-11-02T07:41:58;12.73;;;2.50;;
29570;SDS011;16814;52.118;11.436;2022-11-02T07:44:25;10.35;;;2.20;;
29570;SDS011;16814;52.118;11.436;2022-11-02T07:46:51;17.02;;;2.55;;
29570;SDS011;16814;52.118;11.436;2022-11-02T07:49:18;12.17;;;2.33;;
29570;SDS011;16814;52.118;11.436;2022-11-02T07:51:43;15.25;;;2.20;;
29570;SDS011;16814;52.118;11.436;2022-11-02T07:54:10;11.18;;;2.40;;
29570;SDS011;16814;52.118;11.436;2022-11-02T07:56:36;12.80;;;3.10;;
29570;SDS011;16814;52.118;11.436;2022-11-02T07:59:08;13.35;;;2.47;;
29570;SDS011;16814;52.118;11.436;2022-11-02T08:01:35;19.25;;;2.70;;
29570;SDS011;16814;52.118;11.436;2022-11-02T08:04:02;16.63;;;2.65;;
29570;SDS011;16814;52.118;11.436;2022-11-02T08:06:28;14.50;;;2.78;;
29570;SDS011;16814;52.118;11.436;2022-11-02T08:08:54;14.77;;;2.87;;
29570;SDS011;16814;52.118;11.436;2022-11-02T08:11:20;9.32;;;2.47;;
29570;SDS011;16814;52.118;11.436;2022-11-02T08:13:47;14.65;;;2.85;;
29570;SDS011;16814;52.118;11.436;2022-11-02T08:16:15;11.98;;;2.40;;
29570;SDS011;16814;52.118;11.436;2022-11-02T08:18:42;15.02;;;2.70;;
29570;SDS011;16814;52.118;11.436;2022-11-02T08:21:12;13.87;;;2.60;;
29570;SDS011;16814;52.118;11.436;2022-11-02T08:23:39;18.73;;;2.88;;
29570;SDS011;16814;52.118;11.436;2022-11-02T08:26:06;14.98;;;2.90;;
29570;SDS011;16814;52.118;11.436;2022-11-02T08:28:32;13.00;;;2.78;;
29570;SDS011;16814;52.118;11.436;2022-11-02T08:31:00;14.80;;;2.90;;
29570;SDS011;16814;52.118;11.436;2022-11-02T08:33:26;13.02;;;2.78;;
29570;SDS011;16814;52.118;11.436;2022-11-02T08:35:59;14.68;;;2.90;;
29570;SDS011;16814;52.118;11.436;2022-11-02T08:38:30;20.55;;;2.95;;
29570;SDS011;16814;52.118;11.436;2022-11-02T08:40:57;10.10;;;2.28;;
29570;SDS011;16814;52.118;11.436;2022-11-02T08:43:23;16.95;;;2.65;;
29570;SDS011;16814;52.118;11.436;2022-11-02T08:45:50;15.20;;;2.47;;
29570;SDS011;16814;52.118;11.436;2022-11-02T08:48:16;15.10;;;3.10;;
29570;SDS011;16814;52.118;11.436;2022-11-02T08:50:43;15.27;;;2.80;;
29570;SDS011;16814;52.118;11.436;2022-11-02T08:53:09;14.32;;;2.58;;
29570;SDS011;16814;52.118;11.436;2022-11-02T08:55:39;13.50;;;2.40;;
29570;SDS011;16814;52.118;11.436;2022-11-02T08:58:04;13.98;;;2.53;;
29570;SDS011;16814;52.118;11.436;2022-11-02T09:00:31;12.63;;;2.70;;
29570;SDS011;16814;52.118;11.436;2022-11-02T09:03:07;13.65;;;3.00;;
29570;SDS011;16814;52.118;11.436;2022-11-02T09:05:37;15.63;;;2.80;;
29570;SDS011;16814;52.118;11.436;2022-11-02T09:08:08;10.55;;;2.15;;
29570;SDS011;16814;52.118;11.436;2022-11-02T09:10:43;14.13;;;2.80;;
29570;SDS011;16814;52.118;11.436;2022-11-02T09:13:16;11.53;;;2.70;;
29570;SDS011;16814;52.118;11.436;2022-11-02T09:15:52;15.70;;;2.75;;
29570;SDS011;16814;52.118;11.436;2022-11-02T09:18:21;11.57;;;2.55;;
29570;SDS011;16814;52.118;11.436;2022-11-02T09:20:48;13.88;;;2.50;;
29570;SDS011;16814;52.118;11.436;2022-11-02T09:23:17;13.07;;;2.37;;
29570;SDS011;16814;52.118;11.436;2022-11-02T09:25:43;12.88;;;2.58;;
29570;SDS011;16814;52.118;11.436;2022-11-02T09:28:09;14.83;;;2.60;;
29570;SDS011;16814;52.118;11.436;2022-11-02T09:30:38;13.32;;;2.70;;
29570;SDS011;16814;52.118;11.436;2022-11-02T09:33:05;12.60;;;2.53;;
29570;SDS011;16814;52.118;11.436;2022-11-02T09:35:32;12.07;;;2.47;;
29570;SDS011;16814;52.118;11.436;2022-11-02T09:38:03;15.82;;;2.28;;
29570;SDS011;16814;52.118;11.436;2022-11-02T09:40:53;15.80;;;2.53;;
29570;SDS011;16814;52.118;11.436;2022-11-02T09:43:41;12.13;;;2.20;;
29570;SDS011;16814;52.118;11.436;2022-11-02T09:46:53;11.30;;;2.47;;
29570;SDS011;16814;52.118;11.436;2022-11-02T09:49:20;12.25;;;2.13;;
29570;SDS011;16814;52.118;11.436;2022-11-02T09:51:50;15.63;;;2.83;;
29570;SDS011;16814;52.118;11.436;2022-11-02T09:54:31;10.32;;;2.63;;
29570;SDS011;16814;52.118;11.436;2022-11-02T09:57:08;11.50;;;2.22;;
29570;SDS011;16814;52.118;11.436;2022-11-02T09:59:51;11.02;;;2.28;;
29570;SDS011;16814;52.118;11.436;2022-11-02T10:11:04;14.02;;;2.10;;
29570;SDS011;16814;52.118;11.436;2022-11-02T10:13:53;12.10;;;2.30;;
29570;SDS011;16814;52.118;11.436;2022-11-02T10:16:25;19.02;;;2.80;;
29570;SDS011;16814;52.118;11.436;2022-11-02T10:19:14;13.30;;;2.33;;
29570;SDS011;16814;52.118;11.436;2022-11-02T10:21:44;10.55;;;1.88;;
29570;SDS011;16814;52.118;11.436;2022-11-02T10:24:18;8.65;;;1.60;;
29570;SDS011;16814;52.118;11.436;2022-11-02T10:26:46;12.80;;;1.98;;
29570;SDS011;16814;52.118;11.436;2022-11-02T10:29:15;11.63;;;2.08;;
29570;SDS011;16814;52.118;11.436;2022-11-02T10:31:54;11.93;;;2.10;;
29570;SDS011;16814;52.118;11.436;2022-11-02T10:34:23;9.52;;;1.80;;
29570;SDS011;16814;52.118;11.436;2022-11-02T10:37:14;8.43;;;2.45;;
29570;SDS011;16814;52.118;11.436;2022-11-02T10:42:33;13.73;;;2.08;;
29570;SDS011;16814;52.118;11.436;2022-11-02T10:45:46;15.23;;;2.55;;
29570;SDS011;16814;52.118;11.436;2022-11-02T10:48:33;7.75;;;1.77;;
29570;SDS011;16814;52.118;11.436;2022-11-02T10:51:23;14.63;;;2.30;;
29570;SDS011;16814;52.118;11.436;2022-11-02T10:53:52;11.20;;;2.10;;
29570;SDS011;16814;52.118;11.436;2022-11-02T10:56:32;9.43;;;1.95;;
29570;SDS011;16814;52.118;11.436;2022-11-02T10:59:02;9.32;;;1.85;;
29570;SDS011;16814;52.118;11.436;2022-11-02T11:04:24;16.83;;;2.20;;
29570;SDS011;16814;52.118;11.436;2022-11-02T11:06:53;12.30;;;1.90;;
29570;SDS011;16814;52.118;11.436;2022-11-02T11:09:27;8.77;;;1.77;;
29570;SDS011;16814;52.118;11.436;2022-11-02T11:12:06;12.35;;;2.28;;
29570;SDS011;16814;52.118;11.436;2022-11-02T11:14:54;9.27;;;1.88;;
29570;SDS011;16814;52.118;11.436;2022-11-02T11:17:28;9.90;;;2.10;;
29570;SDS011;16814;52.118;11.436;2022-11-02T11:19:58;10.15;;;2.35;;
29570;SDS011;16814;52.118;11.436;2022-11-02T11:25:18;7.13;;;1.58;;
29570;SDS011;16814;52.118;11.436;2022-11-02T11:27:55;9.80;;;1.88;;
29570;SDS011;16814;52.118;11.436;2022-11-02T11:30:29;11.52;;;1.98;;
29570;SDS011;16814;52.118;11.436;2022-11-02T11:33:00;10.17;;;1.93;;
29570;SDS011;16814;52.118;11.436;2022-11-02T11:35:32;11.18;;;2.22;;
29570;SDS011;16814;52.118;11.436;2022-11-02T11:38:02;15.40;;;1.88;;
29570;SDS011;16814;52.118;11.436;2022-11-02T11:40:36;10.20;;;1.80;;
29570;SDS011;16814;52.118;11.436;2022-11-02T11:43:07;12.40;;;2.30;;
29570;SDS011;16814;52.118;11.436;2022-11-02T11:45:38;11.75;;;2.10;;
29570;SDS011;16814;52.118;11.436;2022-11-02T11:48:19;10.13;;;1.90;;
29570;SDS011;16814;52.118;11.436;2022-11-02T11:50:52;8.30;;;1.65;;
29570;SDS011;16814;52.118;11.436;2022-11-02T11:53:20;7.07;;;1.50;;
29570;SDS011;16814;52.118;11.436;2022-11-02T11:55:55;11.68;;;1.70;;
29570;SDS011;16814;52.118;11.436;2022-11-02T11:58:31;10.35;;;2.10;;
29570;SDS011;16814;52.118;11.436;2022-11-02T12:01:16;9.23;;;1.90;;
29570;SDS011;16814;52.118;11.436;2022-11-02T12:03:58;8.90;;;1.70;;
29570;SDS011;16814;52.118;11.436;2022-11-02T12:06:37;11.90;;;1.83;;
29570;SDS011;16814;52.118;11.436;2022-11-02T12:09:22;10.30;;;1.80;;
29570;SDS011;16814;52.118;11.436;2022-11-02T12:12:18;8.75;;;1.58;;
29570;SDS011;16814;52.118;11.436;2022-11-02T12:23:57;11.10;;;1.42;;
29570;SDS011;16814;52.118;11.436;2022-11-02T12:35:18;9.02;;;1.90;;
29570;SDS011;16814;52.118;11.436;2022-11-02T12:41:09;6.65;;;1.35;;
29570;SDS011;16814;52.118;11.436;2022-11-02T12:43:49;7.32;;;1.58;;
29570;SDS011;16814;52.118;11.436;2022-11-02T12:46:27;7.57;;;1.60;;
29570;SDS011;16814;52.118;11.436;2022-11-02T12:51:51;9.63;;;1.55;;
29570;SDS011;16814;52.118;11.436;2022-11-02T12:54:42;7.82;;;1.70;;
29570;SDS011;16814;52.118;11.436;2022-11-02T12:57:16;7.53;;;1.73;;
29570;SDS011;16814;52.118;11.436;2022-11-02T12:59:45;8.10;;;1.55;;
29570;SDS011;16814;52.118;11.436;2022-11-02T13:02:24;8.23;;;1.52;;
29570;SDS011;16814;52.118;11.436;2022-11-02T13:04:59;8.68;;;1.38;;
29570;SDS011;16814;52.118;11.436;2022-11-02T13:07:38;5.57;;;1.35;;
29570;SDS011;16814;52.118;11.436;2022-11-02T13:10:32;4.60;;;1.40;;
29570;SDS011;16814;52.118;11.436;2022-11-02T13:13:12;7.43;;;1.47;;
29570;SDS011;16814;52.118;11.436;2022-11-02T13:15:51;6.75;;;1.30;;
29570;SDS011;16814;52.118;11.436;2022-11-02T13:21:32;12.70;;;2.00;;
29570;SDS011;16814;52.118;11.436;2022-11-02T13:24:01;6.88;;;1.23;;
29570;SDS011;16814;52.118;11.436;2022-11-02T13:26:34;7.72;;;1.60;;
29570;SDS011;16814;52.118;11.436;2022-11-02T13:32:37;6.60;;;1.50;;
29570;SDS011;16814;52.118;11.436;2022-11-02T13:34:47;8.83;;;1.60;;
29570;SDS011;16814;52.118;11.436;2022-11-02T13:37:20;9.32;;;1.92;;
29570;SDS011;16814;52.118;11.436;2022-11-02T13:40:14;13.10;;;2.10;;
29570;SDS011;16814;52.118;11.436;2022-11-02T13:43:11;13.37;;;1.77;;
29570;SDS011;16814;52.118;11.436;2022-11-02T13:46:16;11.60;;;1.77;;
29570;SDS011;16814;52.118;11.436;2022-11-02T13:49:14;8.60;;;1.55;;
29570;SDS011;16814;52.118;11.436;2022-11-02T13:52:10;8.80;;;1.70;;
29570;SDS011;16814;52.118;11.436;2022-11-02T13:54:45;5.53;;;1.50;;
29570;SDS011;16814;52.118;11.436;2022-11-02T14:03:25;10.20;;;1.75;;
29570;SDS011;16814;52.118;11.436;2022-11-02T14:06:17;10.93;;;1.63;;
29570;SDS011;16814;52.118;11.436;2022-11-02T14:08:52;7.13;;;1.58;;
29570;SDS011;16814;52.118;11.436;2022-11-02T14:11:34;8.95;;;1.70;;
29570;SDS011;16814;52.118;11.436;2022-11-02T14:16:56;9.25;;;1.77;;
29570;SDS011;16814;52.118;11.436;2022-11-02T14:19:24;8.20;;;1.88;;
29570;SDS011;16814;52.118;11.436;2022-11-02T14:22:14;7.57;;;1.80;;
29570;SDS011;16814;52.118;11.436;2022-11-02T14:35:13;8.00;;;1.75;;
29570;SDS011;16814;52.118;11.436;2022-11-02T14:41:17;13.20;;;2.08;;
29570;SDS011;16814;52.118;11.436;2022-11-02T14:47:10;8.32;;;1.80;;
29570;SDS011;16814;52.118;11.436;2022-11-02T14:49:47;9.10;;;2.10;;
29570;SDS011;16814;52.118;11.436;2022-11-02T14:57:52;6.93;;;1.80;;
29570;SDS011;16814;52.118;11.436;2022-11-02T15:00:24;7.28;;;1.90;;
29570;SDS011;16814;52.118;11.436;2022-11-02T15:02:58;8.95;;;1.75;;
29570;SDS011;16814;52.118;11.436;2022-11-02T15:05:27;6.88;;;1.80;;
29570;SDS011;16814;52.118;11.436;2022-11-02T15:08:04;9.70;;;1.87;;
29570;SDS011;16814;52.118;11.436;2022-11-02T15:10:48;8.55;;;2.28;;
29570;SDS011;16814;52.118;11.436;2022-11-02T15:18:35;9.88;;;1.92;;
29570;SDS011;16814;52.118;11.436;2022-11-02T15:23:48;7.63;;;1.93;;
29570;SDS011;16814;52.118;11.436;2022-11-02T15:26:55;8.18;;;2.08;;
29570;SDS011;16814;52.118;11.436;2022-11-02T15:31:55;9.57;;;2.30;;
29570;SDS011;16814;52.118;11.436;2022-11-02T15:34:34;10.80;;;2.28;;
29570;SDS011;16814;52.118;11.436;2022-11-02T15:37:06;10.07;;;1.90;;
29570;SDS011;16814;52.118;11.436;2022-11-02T15:39:32;9.10;;;1.80;;
29570;SDS011;16814;52.118;11.436;2022-11-02T15:42:09;7.70;;;1.90;;
29570;SDS011;16814;52.118;11.436;2022-11-02T15:50:57;12.63;;;2.10;;
29570;SDS011;16814;52.118;11.436;2022-11-02T15:54:43;12.52;;;1.95;;
29570;SDS011;16814;52.118;11.436;2022-11-02T16:00:19;7.57;;;1.77;;
29570;SDS011;16814;52.118;11.436;2022-11-02T16:03:02;5.97;;;1.63;;
29570;SDS011;16814;52.118;11.436;2022-11-02T16:05:32;6.03;;;1.50;;
29570;SDS011;16814;52.118;11.436;2022-11-02T16:08:29;8.68;;;1.98;;
29570;SDS011;16814;52.118;11.436;2022-11-02T16:11:04;10.63;;;2.20;;
29570;SDS011;16814;52.118;11.436;2022-11-02T16:13:43;10.40;;;1.87;;
29570;SDS011;16814;52.118;11.436;2022-11-02T16:16:20;11.52;;;2.00;;
29570;SDS011;16814;52.118;11.436;2022-11-02T16:18:50;6.22;;;2.17;;
29570;SDS011;16814;52.118;11.436;2022-11-02T16:21:20;8.70;;;1.83;;
29570;SDS011;16814;52.118;11.436;2022-11-02T16:23:48;5.90;;;1.85;;
29570;SDS011;16814;52.118;11.436;2022-11-02T16:26:21;9.88;;;2.00;;
29570;SDS011;16814;52.118;11.436;2022-11-02T16:28:52;6.93;;;1.58;;
29570;SDS011;16814;52.118;11.436;2022-11-02T16:31:25;12.83;;;2.20;;
29570;SDS011;16814;52.118;11.436;2022-11-02T16:34:00;7.55;;;2.20;;
29570;SDS011;16814;52.118;11.436;2022-11-02T16:36:44;9.57;;;2.20;;
29570;SDS011;16814;52.118;11.436;2022-11-02T16:39:19;8.13;;;2.00;;
29570;SDS011;16814;52.118;11.436;2022-11-02T16:41:52;6.80;;;1.97;;
29570;SDS011;16814;52.118;11.436;2022-11-02T16:44:26;8.90;;;2.03;;
29570;SDS011;16814;52.118;11.436;2022-11-02T16:52:19;8.80;;;2.20;;
29570;SDS011;16814;52.118;11.436;2022-11-02T16:54:56;7.63;;;1.60;;
29570;SDS011;16814;52.118;11.436;2022-11-02T16:57:29;9.93;;;2.20;;
29570;SDS011;16814;52.118;11.436;2022-11-02T17:02:30;9.50;;;1.83;;
29570;SDS011;16814;52.118;11.436;2022-11-02T17:05:00;7.82;;;1.75;;
29570;SDS011;16814;52.118;11.436;2022-11-02T17:07:32;10.95;;;1.83;;
29570;SDS011;16814;52.118;11.436;2022-11-02T17:10:04;10.20;;;1.83;;